Time;durP1;ratioP1;P1;durP2;ratioP2;P2;SDS_P1;SDS_P2;PMS_P1;PMS_P2;Temp;Humidity;BMP_temperature;BMP_pressure;BME280_temperature;BME280_humidity;BME280_pressure;Samples;Min_cycle;Max_cycle;Signal;HPM_P1;HPM_P2
2021/11/01 00:01:24;;;;;;;10.20;1.90;;;11.10;99.90;;;;;;5087114;28;20213;-64
2021/11/01 00:03:49;;;;;;;12.43;2.00;;;11.00;99.90;;;;;;5086903;28;20168;-64
2021/11/01 00:06:15;;;;;;;12.67;2.20;;;11.00;99.90;;;;;;5086640;28;20190;-64
2021/11/01 00:08:42;;;;;;;10.13;1.57;;;11.00;99.90;;;;;;5086804;28;20219;-65
2021/11/01 00:11:08;;;;;;;11.00;2.47;;;11.00;99.90;;;;;;5086287;28;20198;-64
2021/11/01 00:13:33;;;;;;;11.43;2.00;;;10.90;99.90;;;;;;5086423;28;20246;-65
2021/11/01 00:15:59;;;;;;;9.37;1.63;;;11.00;99.90;;;;;;5086342;28;20178;-64
2021/11/01 00:18:25;;;;;;;10.57;1.73;;;11.00;99.90;;;;;;5086558;28;20167;-64
2021/11/01 00:20:50;;;;;;;9.33;1.80;;;10.90;99.90;;;;;;5086770;28;20230;-64
2021/11/01 00:23:16;;;;;;;8.03;1.83;;;10.90;99.90;;;;;;5086529;28;20512;-65
2021/11/01 00:25:42;;;;;;;12.47;2.40;;;10.80;99.90;;;;;;5085937;28;20228;-64
2021/11/01 00:28:10;;;;;;;9.73;2.03;;;10.80;99.90;;;;;;5086592;28;20168;-64
2021/11/01 00:30:36;;;;;;;8.23;2.20;;;10.80;99.90;;;;;;5086318;28;20252;-64
2021/11/01 00:33:02;;;;;;;14.90;2.07;;;10.90;99.90;;;;;;5086442;28;20156;-65
2021/11/01 00:35:28;;;;;;;11.33;2.10;;;10.80;99.90;;;;;;5086100;28;20164;-65
2021/11/01 00:37:53;;;;;;;8.80;1.63;;;10.90;99.90;;;;;;5086600;28;20160;-64
2021/11/01 00:40:19;;;;;;;13.87;2.10;;;10.90;99.90;;;;;;5085634;28;20193;-64
2021/11/01 00:42:45;;;;;;;6.57;1.60;;;10.90;99.90;;;;;;5086489;28;20156;-65
2021/11/01 00:45:12;;;;;;;15.47;2.33;;;10.90;99.90;;;;;;5085628;28;20190;-65
2021/11/01 00:47:37;;;;;;;8.90;1.77;;;10.80;99.90;;;;;;5086330;28;20164;-64
2021/11/01 00:50:04;;;;;;;10.47;1.70;;;10.80;99.90;;;;;;5086466;28;20194;-65
2021/11/01 00:52:31;;;;;;;7.77;1.97;;;10.80;99.90;;;;;;5086288;28;20183;-64
2021/11/01 00:55:03;;;;;;;6.73;2.33;;;10.80;99.90;;;;;;5085797;28;20541;-64
2021/11/01 00:57:29;;;;;;;6.43;1.67;;;10.90;99.90;;;;;;5086368;28;20175;-64
2021/11/01 00:59:58;;;;;;;9.63;1.70;;;10.80;99.90;;;;;;5086313;28;20576;-65
2021/11/01 01:02:25;;;;;;;11.40;1.63;;;10.80;99.90;;;;;;5086369;28;20155;-64
2021/11/01 01:04:51;;;;;;;13.73;2.33;;;10.80;99.90;;;;;;5085906;28;20195;-65
2021/11/01 01:07:17;;;;;;;8.80;1.70;;;10.90;99.90;;;;;;5086390;28;20152;-64
2021/11/01 01:09:43;;;;;;;14.00;1.67;;;10.80;99.90;;;;;;5086081;28;20702;-65
2021/11/01 01:12:09;;;;;;;8.73;1.90;;;10.70;99.90;;;;;;5085591;28;20279;-64
2021/11/01 01:14:46;;;;;;;4.83;1.80;;;10.80;99.90;;;;;;5085876;28;20172;-64
2021/11/01 01:17:11;;;;;;;9.17;1.77;;;10.70;99.90;;;;;;5086118;28;20170;-65
2021/11/01 01:19:50;;;;;;;6.43;1.97;;;10.70;99.90;;;;;;5086233;28;20156;-64
2021/11/01 01:22:28;;;;;;;10.07;2.03;;;10.70;99.90;;;;;;5086154;28;20166;-65
2021/11/01 01:25:03;;;;;;;7.90;2.50;;;10.70;99.90;;;;;;5085589;28;20626;-64
2021/11/01 01:27:30;;;;;;;6.63;1.73;;;10.70;99.90;;;;;;5084581;28;20275;-64
2021/11/01 01:29:56;;;;;;;9.87;1.93;;;10.60;99.90;;;;;;5086020;28;20694;-65
2021/11/01 01:32:21;;;;;;;14.77;2.33;;;10.80;99.90;;;;;;5085899;28;20175;-65
2021/11/01 01:34:47;;;;;;;10.80;2.20;;;10.80;99.90;;;;;;5084177;28;20167;-65
2021/11/01 01:37:13;;;;;;;8.57;2.30;;;10.70;99.90;;;;;;5085764;28;20239;-65
2021/11/01 01:39:39;;;;;;;8.80;1.80;;;10.80;99.90;;;;;;5085964;28;20168;-65
2021/11/01 01:42:05;;;;;;;8.80;2.20;;;10.70;99.90;;;;;;5085538;28;20172;-65
2021/11/01 01:44:30;;;;;;;9.17;2.33;;;10.70;99.90;;;;;;5085533;28;20218;-64
2021/11/01 01:46:56;;;;;;;15.43;2.43;;;10.70;99.90;;;;;;5085565;28;20164;-64
2021/11/01 01:49:21;;;;;;;7.30;1.67;;;10.80;99.90;;;;;;5085485;28;20166;-66
2021/11/01 01:51:47;;;;;;;12.60;2.13;;;10.80;99.90;;;;;;5085743;28;20225;-65
2021/11/01 01:54:13;;;;;;;13.23;2.13;;;10.80;99.90;;;;;;5085384;28;20156;-64
2021/11/01 01:56:39;;;;;;;8.57;1.90;;;10.80;99.90;;;;;;5086708;28;20175;-65
2021/11/01 01:59:07;;;;;;;9.77;1.93;;;10.80;99.90;;;;;;5089488;28;20161;-65
2021/11/01 02:01:33;;;;;;;10.93;1.93;;;10.70;99.90;;;;;;5087772;28;20255;-65
2021/11/01 02:03:59;;;;;;;13.37;2.47;;;10.70;99.90;;;;;;5089150;28;20168;-64
2021/11/01 02:06:44;;;;;;;11.73;2.00;;;10.80;99.90;;;;;;5089026;28;20171;-65
2021/11/01 02:09:24;;;;;;;6.00;2.60;;;10.70;99.90;;;;;;5089293;28;20155;-64
2021/11/01 02:11:59;;;;;;;9.77;2.30;;;10.60;99.90;;;;;;5088758;28;20203;-64
2021/11/01 02:14:31;;;;;;;12.77;2.13;;;10.60;99.90;;;;;;5089253;28;20242;-64
2021/11/01 02:17:00;;;;;;;14.57;2.33;;;10.70;99.90;;;;;;5087758;28;20632;-64
2021/11/01 02:19:29;;;;;;;10.33;2.37;;;10.60;99.90;;;;;;5088953;28;20180;-64
2021/11/01 02:22:03;;;;;;;11.80;2.70;;;10.60;99.90;;;;;;5089049;28;20176;-65
2021/11/01 02:24:49;;;;;;;11.77;2.20;;;10.60;99.90;;;;;;5088921;28;20232;-64
2021/11/01 02:27:15;;;;;;;7.63;1.97;;;10.60;99.90;;;;;;5088644;28;20224;-65
2021/11/01 02:29:46;;;;;;;11.23;2.40;;;10.60;99.90;;;;;;5088714;28;20164;-65
2021/11/01 02:32:14;;;;;;;7.93;2.30;;;10.70;99.90;;;;;;5089023;28;20160;-64
2021/11/01 02:34:41;;;;;;;9.67;2.27;;;10.60;99.90;;;;;;5088612;28;20648;-64
2021/11/01 02:37:08;;;;;;;6.07;1.60;;;10.50;99.90;;;;;;5088871;28;20176;-64
2021/11/01 02:39:55;;;;;;;10.37;2.07;;;10.50;99.90;;;;;;5088718;28;20533;-64
2021/11/01 02:42:23;;;;;;;11.83;2.13;;;10.50;99.90;;;;;;5088482;28;20168;-65
2021/11/01 02:45:01;;;;;;;12.13;2.53;;;10.40;99.90;;;;;;5088297;28;20172;-64
2021/11/01 02:47:28;;;;;;;12.00;2.97;;;10.60;99.90;;;;;;5088560;28;20216;-64
2021/11/01 02:50:00;;;;;;;7.90;2.00;;;10.60;99.90;;;;;;5088580;28;20236;-64
2021/11/01 02:52:28;;;;;;;11.57;2.03;;;10.60;99.90;;;;;;5088467;28;20153;-65
2021/11/01 02:54:54;;;;;;;9.10;2.00;;;10.50;99.90;;;;;;5087960;28;20176;-65
2021/11/01 02:57:21;;;;;;;14.53;2.30;;;10.50;99.90;;;;;;5087728;28;20229;-65
2021/11/01 02:59:47;;;;;;;27.00;3.00;;;10.50;99.90;;;;;;5088306;28;20175;-64
2021/11/01 03:02:12;;;;;;;10.93;2.20;;;10.50;99.90;;;;;;5088110;28;20687;-65
2021/11/01 03:04:38;;;;;;;6.73;2.00;;;10.50;99.90;;;;;;5088091;28;20167;-65
2021/11/01 03:07:06;;;;;;;15.17;2.33;;;10.40;99.90;;;;;;5087914;28;20160;-64
2021/11/01 03:09:34;;;;;;;8.90;2.37;;;10.50;99.90;;;;;;5088108;28;20163;-65
2021/11/01 03:12:04;;;;;;;8.77;2.10;;;10.50;99.90;;;;;;5087543;28;20223;-64
2021/11/01 03:14:35;;;;;;;11.17;2.03;;;10.30;99.90;;;;;;5088138;28;20167;-64
2021/11/01 03:17:02;;;;;;;12.53;2.00;;;10.40;99.90;;;;;;5088103;28;20164;-65
2021/11/01 03:19:30;;;;;;;11.03;1.90;;;10.50;99.90;;;;;;5087897;28;20617;-64
2021/11/01 03:22:02;;;;;;;14.63;2.47;;;10.60;99.90;;;;;;5087778;28;20155;-64
2021/11/01 03:24:33;;;;;;;12.50;2.30;;;10.50;99.90;;;;;;5087678;28;20164;-64
2021/11/01 03:27:03;;;;;;;19.53;2.07;;;10.50;99.90;;;;;;5087715;28;20183;-64
2021/11/01 03:29:30;;;;;;;12.07;2.07;;;10.40;99.90;;;;;;5087719;28;20164;-65
2021/11/01 03:31:57;;;;;;;13.80;2.10;;;10.40;99.90;;;;;;5087513;28;20251;-64
2021/11/01 03:34:24;;;;;;;10.63;2.00;;;10.50;99.90;;;;;;5087315;28;20204;-65
2021/11/01 03:36:51;;;;;;;10.50;2.23;;;10.40;99.90;;;;;;5087415;28;20183;-65
2021/11/01 03:39:18;;;;;;;8.70;2.17;;;10.40;99.90;;;;;;5087654;28;20168;-65
2021/11/01 03:41:45;;;;;;;17.47;2.57;;;10.40;99.90;;;;;;5087067;28;20206;-65
2021/11/01 03:44:17;;;;;;;11.93;1.77;;;10.40;99.90;;;;;;5086063;28;20168;-65
2021/11/01 03:46:51;;;;;;;12.50;2.63;;;10.50;99.90;;;;;;5087288;28;20160;-65
2021/11/01 03:49:17;;;;;;;10.73;2.67;;;10.40;99.90;;;;;;5087491;28;20174;-65
2021/11/01 03:51:52;;;;;;;10.47;1.60;;;10.40;99.90;;;;;;5087222;28;20214;-65
2021/11/01 03:54:20;;;;;;;12.63;2.73;;;10.50;99.90;;;;;;5087223;28;20162;-64
2021/11/01 03:56:47;;;;;;;10.90;1.90;;;10.50;99.90;;;;;;5086635;28;20187;-64
2021/11/01 03:59:13;;;;;;;16.50;2.70;;;10.50;99.90;;;;;;5087224;28;20155;-65
2021/11/01 04:01:41;;;;;;;12.77;2.53;;;10.60;99.90;;;;;;5087134;28;20172;-65
2021/11/01 04:04:08;;;;;;;14.10;2.47;;;10.60;99.90;;;;;;5087178;28;20164;-65
2021/11/01 04:06:34;;;;;;;15.90;2.50;;;10.50;99.90;;;;;;5086813;28;20164;-65
2021/11/01 04:09:02;;;;;;;12.87;2.10;;;10.50;99.90;;;;;;5087059;28;20187;-64
2021/11/01 04:11:29;;;;;;;5.40;1.70;;;10.50;99.90;;;;;;5084831;28;20310;-64
2021/11/01 04:14:03;;;;;;;16.93;2.37;;;10.50;99.90;;;;;;5087060;28;20148;-64
2021/11/01 04:16:48;;;;;;;8.70;1.80;;;10.40;99.90;;;;;;5086579;28;20168;-65
2021/11/01 04:21:46;;;;;;;10.03;1.67;;;10.50;99.90;;;;;;5086928;28;20226;-64
2021/11/01 04:24:13;;;;;;;14.93;1.73;;;10.40;99.90;;;;;;5086713;28;20152;-64
2021/11/01 04:26:39;;;;;;;15.47;2.57;;;10.40;99.90;;;;;;5086014;28;20175;-64
2021/11/01 04:29:07;;;;;;;9.60;2.03;;;10.40;99.90;;;;;;5086990;28;20167;-64
2021/11/01 04:31:36;;;;;;;11.90;2.27;;;10.40;99.90;;;;;;5086336;28;20247;-65
2021/11/01 04:34:11;;;;;;;8.33;2.30;;;10.30;99.90;;;;;;5086496;28;20180;-64
2021/11/01 04:36:38;;;;;;;18.03;2.10;;;10.20;99.90;;;;;;5086265;28;20167;-64
2021/11/01 04:39:15;;;;;;;15.10;2.40;;;10.20;99.90;;;;;;5086653;28;20231;-64
2021/11/01 04:42:02;;;;;;;8.53;1.80;;;10.20;99.90;;;;;;5086076;28;20644;-65
2021/11/01 04:53:03;;;;;;;12.13;2.30;;;10.20;99.90;;;;;;5064512;28;20156;-65
2021/11/01 04:55:30;;;;;;;11.17;1.93;;;10.20;99.90;;;;;;5063673;28;20619;-64
2021/11/01 04:57:57;;;;;;;10.30;2.23;;;10.20;99.90;;;;;;5064208;28;20181;-64
2021/11/01 05:00:23;;;;;;;14.37;3.10;;;10.20;99.90;;;;;;5064081;28;20169;-64
2021/11/01 05:02:58;;;;;;;10.90;2.03;;;10.10;99.90;;;;;;5063821;28;20196;-64
2021/11/01 05:05:24;;;;;;;15.57;2.73;;;10.20;99.90;;;;;;5063763;28;20214;-64
2021/11/01 05:07:49;;;;;;;13.10;2.13;;;10.20;99.90;;;;;;5064005;28;20255;-64
2021/11/01 05:13:17;;;;;;;14.67;2.27;;;10.20;99.90;;;;;;5051023;28;20218;-64
2021/11/01 05:21:20;;;;;;;17.37;2.47;;;10.50;99.90;;;;;;5063737;28;20176;-65
2021/11/01 05:23:43;;;;;;;12.23;2.30;;;10.50;99.90;;;;;;5079425;28;20179;-65
2021/11/01 05:26:14;;;;;;;14.33;2.13;;;10.50;99.90;;;;;;5085450;28;20178;-64
2021/11/01 05:31:08;;;;;;;12.53;2.07;;;10.50;99.90;;;;;;5086540;28;20195;-64
2021/11/01 05:36:08;;;;;;;13.33;1.93;;;10.40;99.90;;;;;;5089427;28;20172;-65
2021/11/01 05:38:34;;;;;;;11.83;2.63;;;10.50;99.90;;;;;;5089742;28;20225;-65
2021/11/01 05:41:01;;;;;;;16.77;2.97;;;10.50;99.90;;;;;;5089219;28;20180;-65
2021/11/01 05:43:27;;;;;;;14.13;2.40;;;10.40;99.90;;;;;;5089889;28;20223;-65
2021/11/01 05:45:52;;;;;;;12.07;2.23;;;10.30;99.90;;;;;;5089482;28;20176;-64
2021/11/01 05:48:18;;;;;;;5.97;1.90;;;10.40;99.90;;;;;;5089657;28;20186;-65
2021/11/01 05:50:44;;;;;;;12.23;2.30;;;10.40;99.90;;;;;;5089439;28;20183;-64
2021/11/01 05:53:12;;;;;;;12.63;2.00;;;10.50;99.90;;;;;;5089654;28;20544;-64
2021/11/01 05:58:12;;;;;;;16.57;2.27;;;10.40;99.90;;;;;;5089739;28;20168;-65
2021/11/01 06:03:17;;;;;;;16.97;1.73;;;10.40;99.90;;;;;;5089634;28;20175;-65
2021/11/01 06:13:31;;;;;;;11.53;2.33;;;10.20;99.90;;;;;;5089216;28;20242;-64
2021/11/01 06:15:59;;;;;;;8.30;2.10;;;10.30;99.90;;;;;;5088882;28;20175;-65
2021/11/01 06:18:35;;;;;;;10.93;2.30;;;10.20;99.90;;;;;;5087941;28;20164;-65
2021/11/01 06:21:05;;;;;;;12.10;1.77;;;10.20;99.90;;;;;;5088977;28;20171;-65
2021/11/01 06:23:33;;;;;;;11.23;2.30;;;10.20;99.90;;;;;;5089040;28;20156;-64
2021/11/01 06:25:59;;;;;;;13.13;2.53;;;10.20;99.90;;;;;;5088421;28;20176;-64
2021/11/01 06:28:26;;;;;;;8.50;2.07;;;10.20;99.90;;;;;;5089052;28;20152;-65
2021/11/01 06:31:12;;;;;;;9.17;2.00;;;10.10;99.90;;;;;;5087562;28;20199;-64
2021/11/01 06:39:43;;;;;;;10.73;2.00;;;10.00;99.90;;;;;;5088884;28;20186;-64
2021/11/01 06:42:26;;;;;;;10.97;2.13;;;10.10;99.90;;;;;;5087542;28;20188;-64
2021/11/01 06:50:31;;;;;;;12.43;2.20;;;10.10;99.90;;;;;;5088476;28;20210;-64
2021/11/01 07:22:14;;;;;;;15.40;2.10;;;10.10;99.90;;;;;;5087974;28;20180;-65
2021/11/01 09:13:06;;;;;;;5.63;1.60;;;11.20;99.90;;;;;;5085050;28;20246;-65
2021/11/01 09:26:21;;;;;;;6.65;1.40;;;11.20;99.90;;;;;;5085435;28;20183;-64
2021/11/01 09:28:57;;;;;;;4.15;1.35;;;11.30;99.90;;;;;;5085741;28;20195;-64
2021/11/01 09:36:55;;;;;;;6.68;1.55;;;11.60;99.90;;;;;;5085477;28;20230;-64
2021/11/01 09:42:05;;;;;;;7.90;1.85;;;11.70;99.90;;;;;;5084437;28;20463;-65
2021/11/01 09:44:32;;;;;;;6.00;1.38;;;11.70;99.90;;;;;;5085757;28;20169;-64
2021/11/01 09:47:00;;;;;;;9.90;1.98;;;11.80;99.90;;;;;;5083719;28;20175;-65
2021/11/01 09:49:27;;;;;;;7.10;1.50;;;11.80;99.90;;;;;;5085817;28;20168;-64
2021/11/01 09:51:57;;;;;;;6.90;1.70;;;11.80;99.90;;;;;;5085116;28;20440;-64
2021/11/01 09:54:26;;;;;;;7.70;1.30;;;11.90;99.90;;;;;;5085567;28;20160;-64
2021/11/01 09:57:02;;;;;;;5.32;1.23;;;12.00;99.90;;;;;;5085156;28;20216;-64
2021/11/01 09:59:40;;;;;;;7.72;1.40;;;11.80;99.90;;;;;;5085549;28;20174;-64
2021/11/01 10:02:08;;;;;;;4.95;1.20;;;12.00;99.90;;;;;;5085419;28;20172;-64
2021/11/01 10:04:36;;;;;;;8.23;2.22;;;12.10;99.90;;;;;;5085590;28;20247;-64
2021/11/01 10:07:22;;;;;;;10.10;1.70;;;12.10;99.90;;;;;;5085139;28;20183;-65
2021/11/01 10:10:04;;;;;;;5.68;1.25;;;12.30;99.90;;;;;;5085345;28;20206;-64
2021/11/01 10:12:35;;;;;;;9.68;1.33;;;12.30;99.90;;;;;;5084318;28;20215;-64
2021/11/01 10:17:59;;;;;;;6.10;1.10;;;12.30;99.90;;;;;;5086620;28;20172;-64
2021/11/01 10:20:26;;;;;;;3.72;1.08;;;12.40;99.90;;;;;;5088933;28;20151;-64
2021/11/01 10:22:53;;;;;;;6.45;1.60;;;12.40;99.90;;;;;;5089044;28;20182;-64
2021/11/01 10:25:20;;;;;;;6.15;1.27;;;12.40;99.90;;;;;;5088463;28;20164;-64
2021/11/01 10:27:57;;;;;;;8.30;1.48;;;12.40;99.90;;;;;;5088505;28;20659;-64
2021/11/01 10:30:26;;;;;;;3.40;1.38;;;12.40;99.90;;;;;;5088867;28;20206;-64
2021/11/01 10:32:53;;;;;;;3.65;1.50;;;12.30;99.90;;;;;;5088927;28;20152;-65
2021/11/01 10:35:21;;;;;;;9.48;1.50;;;12.30;99.90;;;;;;5087345;28;20265;-65
2021/11/01 10:41:31;;;;;;;5.53;1.30;;;12.40;99.90;;;;;;5086717;28;20190;-65
2021/11/01 11:19:53;;;;;;;10.73;1.95;;;12.90;99.90;;;;;;5088234;28;20213;-65
2021/11/01 11:32:52;;;;;;;8.45;2.17;;;12.70;99.90;;;;;;5086938;28;20306;-65
2021/11/01 11:42:19;;;;;;;7.03;1.50;;;13.50;99.90;;;;;;5087456;28;20162;-64
2021/11/01 11:43:47;;;;;;;7.25;1.30;;;13.60;99.90;;;;;;5086630;28;20176;-65
2021/11/01 11:49:27;;;;;;;3.90;1.30;;;13.80;99.90;;;;;;5087264;28;20243;-65
2021/11/01 11:52:00;;;;;;;4.60;1.40;;;13.60;99.90;;;;;;5085403;28;20291;-65
2021/11/01 11:54:33;;;;;;;5.00;1.02;;;13.60;99.90;;;;;;5087185;28;20160;-65
2021/11/01 11:57:04;;;;;;;11.52;1.80;;;13.80;99.90;;;;;;5086409;28;20168;-65
2021/11/01 11:59:35;;;;;;;3.63;1.20;;;13.80;99.90;;;;;;5087154;28;20152;-65
2021/11/01 12:02:06;;;;;;;7.60;1.25;;;13.80;99.90;;;;;;5086732;28;20164;-65
2021/11/01 12:04:37;;;;;;;6.13;1.80;;;13.90;99.90;;;;;;5086870;28;20168;-65
2021/11/01 12:07:04;;;;;;;10.05;1.77;;;13.90;99.90;;;;;;5086523;28;20597;-65
2021/11/01 12:09:47;;;;;;;5.03;1.30;;;14.10;99.90;;;;;;5086862;28;20168;-65
2021/11/01 12:17:50;;;;;;;4.32;1.45;;;13.80;99.90;;;;;;5086424;28;20183;-65
2021/11/01 12:20:20;;;;;;;2.17;1.25;;;14.00;99.90;;;;;;5086715;28;20155;-66
2021/11/01 12:22:49;;;;;;;2.58;1.13;;;14.00;99.90;;;;;;5086632;28;20171;-65
2021/11/01 12:25:17;;;;;;;10.05;1.65;;;13.90;99.90;;;;;;5086691;28;20172;-65
2021/11/01 12:27:51;;;;;;;3.15;1.40;;;13.90;99.90;;;;;;5085860;28;20199;-66
2021/11/01 12:30:19;;;;;;;7.90;1.88;;;13.70;99.90;;;;;;5086299;28;20318;-65
2021/11/01 12:32:45;;;;;;;3.65;1.27;;;13.70;99.90;;;;;;5085954;28;20618;-65
2021/11/01 12:35:20;;;;;;;6.75;1.30;;;13.60;99.90;;;;;;5086156;28;20164;-65
2021/11/01 12:38:00;;;;;;;5.78;1.50;;;13.60;99.90;;;;;;5085863;28;20194;-65
2021/11/01 12:40:39;;;;;;;7.63;2.08;;;13.60;99.90;;;;;;5085464;28;20167;-65
2021/11/01 12:46:35;;;;;;;7.28;2.25;;;13.60;99.90;;;;;;5085925;28;20161;-65
2021/11/01 12:59:40;;;;;;;5.10;1.15;;;14.20;99.90;;;;;;5086390;28;20148;-65
2021/11/01 13:02:10;;;;;;;11.90;1.27;;;14.00;99.90;;;;;;5086096;28;20164;-65
2021/11/01 13:04:39;;;;;;;7.25;1.58;;;13.90;99.90;;;;;;5085876;28;20156;-65
2021/11/01 13:10:07;;;;;;;6.28;1.55;;;14.00;99.90;;;;;;5085829;28;20156;-67
2021/11/01 13:20:32;;;;;;;6.05;1.65;;;13.90;99.90;;;;;;5085574;28;20180;-65
2021/11/01 13:23:00;;;;;;;5.93;1.63;;;13.90;99.90;;;;;;5085303;28;20178;-65
2021/11/01 13:25:43;;;;;;;6.35;1.00;;;13.90;99.90;;;;;;5085423;28;20641;-65
2021/11/01 13:38:54;;;;;;;9.32;1.52;;;13.90;99.90;;;;;;5083894;28;20247;-65
2021/11/01 13:41:27;;;;;;;3.85;1.15;;;14.10;99.90;;;;;;5083345;28;20641;-65
2021/11/01 13:44:20;;;;;;;4.93;1.70;;;13.90;99.90;;;;;;5083572;28;20153;-65
2021/11/01 13:46:50;;;;;;;6.70;1.30;;;13.90;99.90;;;;;;5083474;28;20168;-65
2021/11/01 13:49:18;;;;;;;3.55;1.25;;;14.00;99.90;;;;;;5083397;28;20164;-65
2021/11/01 13:51:46;;;;;;;10.90;1.25;;;14.00;99.90;;;;;;5085519;28;20184;-66
2021/11/01 13:54:37;;;;;;;5.68;1.63;;;14.00;99.90;;;;;;5089603;28;20176;-66
2021/11/01 13:57:01;;;;;;;5.40;1.00;;;14.00;99.90;;;;;;5088287;28;20234;-65
2021/11/01 13:59:46;;;;;;;3.38;0.93;;;14.00;99.90;;;;;;5089232;28;20160;-66
2021/11/01 14:13:09;;;;;;;5.45;0.70;;;14.20;99.90;;;;;;5088808;28;20219;-66
2021/11/01 14:16:14;;;;;;;2.67;0.90;;;14.10;99.90;;;;;;5089064;28;20136;-66
2021/11/01 14:59:35;;;;;;;5.13;1.38;;;13.50;99.90;;;;;;5086240;28;20152;-66
2021/11/01 15:06:04;;;;;;;4.35;1.30;;;13.60;99.90;;;;;;5086007;28;20148;-66
2021/11/01 15:15:32;;;;;;;3.53;1.63;;;13.90;99.90;;;;;;5088245;28;20160;-66
2021/11/01 15:23:18;;;;;;;19.20;7.18;;;13.70;99.90;;;;;;5087020;28;20159;-66
2021/11/01 16:19:42;;;;;;;6.20;0.90;;;10.50;99.90;;;;;;5065986;28;20165;-65
2021/11/01 16:22:10;;;;;;;5.20;0.80;;;10.80;99.90;;;;;;5065940;28;20165;-66
2021/11/01 16:24:37;;;;;;;1.47;0.90;;;11.00;99.90;;;;;;5065950;28;20165;-66
2021/11/01 16:27:05;;;;;;;4.23;1.00;;;10.90;99.90;;;;;;5065212;28;20248;-66
2021/11/01 16:29:46;;;;;;;3.17;1.10;;;11.00;99.90;;;;;;5066411;28;20243;-66
2021/11/01 16:32:24;;;;;;;1.67;0.90;;;10.90;99.90;;;;;;5066403;28;20194;-66
2021/11/01 16:34:54;;;;;;;1.03;0.90;;;10.80;99.90;;;;;;5066216;28;20145;-65
2021/11/01 16:37:27;;;;;;;3.23;0.90;;;10.90;99.90;;;;;;5065963;28;20165;-65
2021/11/01 16:39:53;;;;;;;1.07;0.90;;;10.90;99.90;;;;;;5065302;28;20244;-66
2021/11/01 16:42:23;;;;;;;2.00;1.00;;;10.80;99.90;;;;;;5066011;28;20184;-65
2021/11/01 16:44:49;;;;;;;2.73;1.30;;;10.80;99.90;;;;;;5066565;28;20173;-66
2021/11/01 16:47:17;;;;;;;3.10;1.73;;;11.00;99.90;;;;;;5065966;28;20218;-66
2021/11/01 16:49:43;;;;;;;2.53;1.63;;;11.10;99.90;;;;;;5066619;28;20164;-66
2021/11/01 16:52:16;;;;;;;1.67;1.57;;;10.90;99.90;;;;;;5066347;28;20200;-66
2021/11/01 16:54:54;;;;;;;4.47;1.70;;;10.90;99.90;;;;;;5066584;28;20236;-66
2021/11/01 16:57:26;;;;;;;4.83;1.90;;;11.00;99.90;;;;;;5065680;28;20168;-66
2021/11/01 17:00:45;;;;;;;4.70;1.70;;;11.00;99.90;;;;;;5065244;28;20137;-66
2021/11/01 17:27:07;;;;;;;2.67;1.70;;;10.90;99.90;;;;;;5085057;28;20410;-65
2021/11/01 18:41:22;;;;;;;7.27;5.20;;;9.90;99.90;;;;;;5086209;28;20280;-65
2021/11/01 18:52:10;;;;;;;2.30;2.10;;;9.80;99.90;;;;;;5085960;28;20270;-65
2021/11/01 18:54:41;;;;;;;2.00;1.30;;;9.80;99.90;;;;;;5086286;28;20179;-65
2021/11/01 18:57:11;;;;;;;4.23;1.50;;;9.80;99.90;;;;;;5085367;28;20247;-65
2021/11/01 18:59:39;;;;;;;1.60;1.30;;;9.70;99.90;;;;;;5085763;28;20247;-65
2021/11/01 19:04:49;;;;;;;3.60;1.80;;;9.80;99.90;;;;;;5085791;28;20168;-65
2021/11/01 19:07:23;;;;;;;1.70;1.60;;;9.80;99.90;;;;;;5085641;28;20184;-65
2021/11/01 19:10:09;;;;;;;1.53;1.20;;;9.70;99.90;;;;;;5086047;28;20160;-65
2021/11/01 21:26:08;;;;;;;1.93;1.63;;;9.20;99.90;;;;;;5068940;28;20179;-65
2021/11/01 21:28:34;;;;;;;2.07;1.60;;;9.00;99.90;;;;;;5068024;28;20236;-65
2021/11/01 21:31:00;;;;;;;3.27;1.57;;;9.00;99.90;;;;;;5068695;28;20184;-65
2021/11/01 21:33:31;;;;;;;2.00;1.80;;;9.00;99.90;;;;;;5068477;28;20169;-65
2021/11/01 21:36:04;;;;;;;1.83;1.63;;;9.00;99.90;;;;;;5068451;28;20141;-65
2021/11/01 21:38:30;;;;;;;1.63;1.53;;;9.10;99.90;;;;;;5066958;28;20203;-65
2021/11/01 21:40:55;;;;;;;2.27;1.67;;;9.00;99.90;;;;;;5068649;28;20161;-66
2021/11/01 21:43:22;;;;;;;1.80;1.70;;;9.00;99.90;;;;;;5067985;28;20164;-65
2021/11/01 21:45:49;;;;;;;2.13;1.93;;;9.10;99.90;;;;;;5068335;28;20188;-66
2021/11/01 21:48:15;;;;;;;2.37;1.73;;;9.10;99.90;;;;;;5068004;28;20168;-65
2021/11/01 21:50:45;;;;;;;2.33;1.90;;;9.10;99.90;;;;;;5068292;28;20191;-66
2021/11/01 21:53:13;;;;;;;3.70;2.30;;;9.10;99.90;;;;;;5068075;28;20667;-65
2021/11/01 21:55:40;;;;;;;3.13;2.10;;;9.20;99.90;;;;;;5068363;28;20161;-65
2021/11/01 21:58:31;;;;;;;2.20;2.00;;;9.10;99.90;;;;;;5067631;28;20193;-65
2021/11/01 22:17:54;;;;;;;2.60;2.10;;;9.30;99.90;;;;;;5067931;28;20211;-65
2021/11/01 22:20:36;;;;;;;3.57;2.10;;;9.20;99.90;;;;;;5063487;28;20181;-65
2021/11/01 22:33:12;;;;;;;5.40;3.60;;;9.20;99.90;;;;;;5067335;28;20210;-66
2021/11/01 22:41:13;;;;;;;17.10;4.80;;;9.10;99.90;;;;;;5067537;28;20152;-65
2021/11/01 22:46:39;;;;;;;11.67;4.57;;;9.00;99.90;;;;;;5067517;28;20175;-66
2021/11/01 22:55:33;;;;;;;8.30;4.70;;;9.00;99.90;;;;;;5066417;28;20177;-65
2021/11/01 22:57:27;;;;;;;11.27;6.00;;;9.10;99.90;;;;;;5044416;28;20176;-65
2021/11/01 22:59:53;;;;;;;10.10;5.23;;;9.10;99.90;;;;;;5027925;28;20166;-65
2021/11/01 23:02:20;;;;;;;9.67;5.00;;;9.10;99.90;;;;;;5027924;28;20172;-65
2021/11/01 23:04:51;;;;;;;9.93;5.70;;;9.20;99.90;;;;;;5044392;28;20226;-65
2021/11/01 23:31:55;;;;;;;13.20;6.97;;;9.50;99.90;;;;;;5066575;28;20191;-65
2021/11/01 23:34:21;;;;;;;15.30;6.70;;;9.30;99.90;;;;;;5066695;28;20156;-65
2021/11/01 23:36:47;;;;;;;12.27;6.53;;;9.30;99.90;;;;;;5066412;28;20161;-65
2021/11/01 23:39:16;;;;;;;13.03;6.63;;;9.30;99.90;;;;;;5066488;28;20165;-65
2021/11/01 23:41:47;;;;;;;14.20;6.97;;;9.10;99.90;;;;;;5066334;28;20161;-66
2021/11/01 23:44:13;;;;;;;12.77;6.33;;;9.10;99.90;;;;;;5066354;28;20222;-66
2021/11/01 23:46:38;;;;;;;15.67;7.27;;;9.20;99.90;;;;;;5066121;28;20161;-65
2021/11/01 23:49:05;;;;;;;15.73;7.70;;;9.20;99.90;;;;;;5066120;28;20197;-65
2021/11/01 23:51:32;;;;;;;17.27;8.60;;;9.20;99.90;;;;;;5066320;28;20265;-65
2021/11/01 23:56:48;;;;;;;13.47;7.10;;;9.10;99.90;;;;;;5066052;28;20507;-65
2021/11/01 23:59:14;;;;;;;14.53;6.73;;;9.00;99.90;;;;;;5065918;28;20172;-66
